createdAt,value
2019-04-20T00:00:29.434Z,4.37
2019-04-20T00:01:12.603Z,4.17
2019-04-20T00:01:45.147Z,4.85
2019-04-20T00:02:22.051Z,4.37
2019-04-20T00:02:55.590Z,4.67
2019-04-20T00:03:30.934Z,4.60
2019-04-20T00:04:03.175Z,4.30
2019-04-20T00:04:37.408Z,4.87
2019-04-20T00:05:10.388Z,4.75
2019-04-20T00:05:43.503Z,4.97
2019-04-20T00:06:17.371Z,4.78
2019-04-20T00:06:53.951Z,4.85
2019-04-20T00:07:30.902Z,4.50
2019-04-20T00:08:01.190Z,4.65
2019-04-20T00:08:36.539Z,4.87
2019-04-20T00:09:15.944Z,4.67
2019-04-20T00:09:50.193Z,4.15
2019-04-20T00:10:21.583Z,4.90
2019-04-20T00:11:02.602Z,4.60
2019-04-20T00:11:39.896Z,5.20
2019-04-20T00:12:10.924Z,4.30
2019-04-20T00:12:53.601Z,4.90
2019-04-20T00:13:21.521Z,4.65
2019-04-20T00:13:54.972Z,4.80
2019-04-20T00:14:26.106Z,4.72
2019-04-20T00:14:54.870Z,4.40
2019-04-20T00:15:28.234Z,4.70
2019-04-20T00:16:02.021Z,4.85
2019-04-20T00:16:35.770Z,4.50
2019-04-20T00:17:09.502Z,5.10
2019-04-20T00:17:50.826Z,4.65
2019-04-20T00:18:17.114Z,5.22
2019-04-20T00:18:54.829Z,4.50
2019-04-20T00:19:33.712Z,4.83
2019-04-20T00:19:59.405Z,4.70
2019-04-20T00:20:35.913Z,4.83
2019-04-20T00:21:26.802Z,4.62
2019-04-20T00:22:09.880Z,4.67
2019-04-20T00:22:59.678Z,4.12
2019-04-20T00:23:42.036Z,4.17
2019-04-20T00:24:37.530Z,5.05
2019-04-20T00:25:42.539Z,4.62
2019-04-20T00:27:04.698Z,4.95
2019-04-20T00:27:32.969Z,5.00
2019-04-20T00:28:19.735Z,5.10
2019-04-20T00:28:58.948Z,5.33
2019-04-20T00:29:32.206Z,4.70
2019-04-20T00:30:04.328Z,5.00
2019-04-20T00:30:41.476Z,5.10
2019-04-20T00:31:13.846Z,4.72
2019-04-20T00:31:45.806Z,4.17
2019-04-20T00:32:14.404Z,4.60
2019-04-20T00:32:54.666Z,5.33
2019-04-20T00:33:27.106Z,4.33
2019-04-20T00:33:59.443Z,4.45
2019-04-20T00:34:29.689Z,5.15
2019-04-20T00:34:57.991Z,5.30
2019-04-20T00:35:31.393Z,4.90
2019-04-20T00:36:05.265Z,5.03
2019-04-20T00:36:39.234Z,5.35
2019-04-20T00:37:12.888Z,5.40
2019-04-20T00:37:46.709Z,5.12
2019-04-20T00:38:21.036Z,4.30
2019-04-20T00:38:58.237Z,5.00
2019-04-20T00:39:28.324Z,4.50
2019-04-20T00:40:01.652Z,5.35
2019-04-20T00:40:35.744Z,4.70
2019-04-20T00:41:12.516Z,5.60
2019-04-20T00:41:49.863Z,4.45
2019-04-20T00:42:19.698Z,4.90
2019-04-20T00:42:55.668Z,4.65
2019-04-20T00:43:32.460Z,4.62
2019-04-20T00:44:06.867Z,5.35
2019-04-20T00:44:39.589Z,5.17
2019-04-20T00:45:18.150Z,4.78
2019-04-20T00:45:51.638Z,5.22
2019-04-20T00:46:25.479Z,5.05
2019-04-20T00:47:04.554Z,5.20
2019-04-20T00:47:37.270Z,5.17
2019-04-20T00:48:11.993Z,4.37
2019-04-20T00:48:48.537Z,5.53
2019-04-20T00:49:25.384Z,4.92
2019-04-20T00:50:00.050Z,5.00
2019-04-20T00:50:34.228Z,5.17
2019-04-20T00:51:17.422Z,5.08
2019-04-20T00:51:49.140Z,5.45
2019-04-20T00:52:27.532Z,5.20
2019-04-20T00:52:54.317Z,5.62
2019-04-20T00:53:22.930Z,4.22
2019-04-20T00:53:52.317Z,5.58
2019-04-20T00:54:24.299Z,5.12
2019-04-20T00:54:58.105Z,5.55
2019-04-20T00:55:31.802Z,5.50
2019-04-20T00:56:05.477Z,5.20
2019-04-20T00:56:39.258Z,5.35
2019-04-20T00:57:22.340Z,5.90
2019-04-20T00:57:51.886Z,4.90
2019-04-20T00:58:28.816Z,5.00
2019-04-20T00:59:12.241Z,5.75
2019-04-20T00:59:51.772Z,6.10
2019-04-20T01:00:23.122Z,5.53
2019-04-20T01:01:04.086Z,5.67
2019-04-20T01:01:37.483Z,5.28
2019-04-20T01:02:11.727Z,5.83
2019-04-20T01:02:37.877Z,5.62
2019-04-20T01:03:17.304Z,5.05
2019-04-20T01:03:47.331Z,5.67
2019-04-20T01:04:23.917Z,5.25
2019-04-20T01:05:04.394Z,5.67
2019-04-20T01:05:47.841Z,5.37
2019-04-20T01:06:35.077Z,5.55
2019-04-20T01:07:26.332Z,5.85
2019-04-20T01:08:14.954Z,4.78
2019-04-20T01:08:53.024Z,5.03
2019-04-20T01:09:45.482Z,4.95
2019-04-20T01:10:19.309Z,5.78
2019-04-20T01:10:55.711Z,5.15
2019-04-20T01:11:31.777Z,5.20
2019-04-20T01:12:03.226Z,5.20
2019-04-20T01:12:38.697Z,5.70
2019-04-20T01:13:15.074Z,6.35
2019-04-20T01:13:52.002Z,6.00
2019-04-20T01:14:27.275Z,6.05
2019-04-20T01:15:00.611Z,5.58
2019-04-20T01:15:40.155Z,4.92
2019-04-20T01:16:08.718Z,6.00
2019-04-20T01:16:47.286Z,4.85
2019-04-20T01:17:13.377Z,5.90
2019-04-20T01:17:46.161Z,5.70
2019-04-20T01:18:19.291Z,5.83
2019-04-20T01:18:51.907Z,5.72
2019-04-20T01:19:24.520Z,5.87
2019-04-20T01:19:57.747Z,6.03
2019-04-20T01:20:30.350Z,5.90
2019-04-20T01:21:06.881Z,5.35
2019-04-20T01:21:38.347Z,5.65
2019-04-20T01:22:15.982Z,5.97
2019-04-20T01:22:56.020Z,6.17
2019-04-20T01:23:22.921Z,6.45
2019-04-20T01:24:00.286Z,5.78
2019-04-20T01:24:35.001Z,5.55
2019-04-20T01:25:09.795Z,5.65
2019-04-20T01:25:42.242Z,5.45
2019-04-20T01:26:17.189Z,5.85
2019-04-20T01:26:50.540Z,5.45
2019-04-20T01:27:32.425Z,5.50
2019-04-20T01:28:23.314Z,5.33
2019-04-20T01:28:46.396Z,5.30
2019-04-20T01:29:16.993Z,6.22
2019-04-20T01:29:46.805Z,5.90
2019-04-20T01:30:24.900Z,6.17
2019-04-20T01:31:00.116Z,6.05
2019-04-20T01:31:34.596Z,5.20
2019-04-20T01:32:10.580Z,5.78
2019-04-20T01:32:52.572Z,6.25
2019-04-20T01:33:25.895Z,6.28
2019-04-20T01:33:56.567Z,5.80
2019-04-20T01:34:32.549Z,5.60
2019-04-20T01:35:04.487Z,5.65
2019-04-20T01:35:44.143Z,5.78
2019-04-20T01:36:19.582Z,6.05
2019-04-20T01:36:51.651Z,5.65
2019-04-20T01:37:28.453Z,6.20
2019-04-20T01:38:00.267Z,5.78
2019-04-20T01:38:37.401Z,6.10
2019-04-20T01:39:07.799Z,6.40
2019-04-20T01:39:37.174Z,6.25
2019-04-20T01:40:06.103Z,6.05
2019-04-20T01:40:40.153Z,5.58
2019-04-20T01:41:14.038Z,6.12
2019-04-20T01:41:47.684Z,6.37
2019-04-20T01:42:21.371Z,6.60
2019-04-20T01:42:55.239Z,6.58
2019-04-20T01:43:29.063Z,6.17
2019-04-20T01:44:02.630Z,6.47
2019-04-20T01:44:41.213Z,6.60
2019-04-20T01:45:16.829Z,6.95
2019-04-20T01:45:45.699Z,6.30
2019-04-20T01:46:23.348Z,6.60
2019-04-20T01:46:58.789Z,6.62
2019-04-20T01:47:34.011Z,5.72
2019-04-20T01:48:04.785Z,6.30
2019-04-20T01:48:39.949Z,5.60
2019-04-20T01:49:18.246Z,6.60
2019-04-20T01:49:47.704Z,7.00
2019-04-20T01:50:27.465Z,6.10
2019-04-20T01:51:04.778Z,6.50
2019-04-20T01:51:37.364Z,5.90
2019-04-20T01:52:12.975Z,6.30
2019-04-20T01:52:50.813Z,6.12
2019-04-20T01:53:29.252Z,6.80
2019-04-20T01:54:14.806Z,6.47
2019-04-20T01:54:52.732Z,6.15
2019-04-20T01:55:41.479Z,6.60
2019-04-20T01:56:15.496Z,6.60
2019-04-20T01:56:43.480Z,6.40
2019-04-20T01:57:54.785Z,6.85
2019-04-20T01:58:43.551Z,6.37
2019-04-20T01:59:29.518Z,5.62
2019-04-20T02:00:06.087Z,6.10
2019-04-20T02:01:13.697Z,6.35
2019-04-20T02:02:16.080Z,6.10
2019-04-20T02:02:57.224Z,6.60
2019-04-20T02:03:57.508Z,6.45
2019-04-20T02:04:40.647Z,6.58
2019-04-20T02:05:20.689Z,7.08
2019-04-20T02:05:55.641Z,6.90
2019-04-20T02:06:25.048Z,6.65
2019-04-20T02:06:59.904Z,7.30
2019-04-20T02:07:37.538Z,6.25
2019-04-20T02:08:08.799Z,7.10
2019-04-20T02:08:40.161Z,6.42
2019-04-20T02:09:18.438Z,7.20
2019-04-20T02:09:53.436Z,5.92
2019-04-20T02:10:31.138Z,6.10
2019-04-20T02:11:00.315Z,6.45
2019-04-20T02:11:36.202Z,6.35
2019-04-20T02:12:13.014Z,6.45
2019-04-20T02:12:41.219Z,6.65
2019-04-20T02:13:15.284Z,6.65
2019-04-20T02:13:55.129Z,7.20
2019-04-20T02:14:28.657Z,7.10
2019-04-20T02:15:02.771Z,6.10
2019-04-20T02:15:40.362Z,7.65
2019-04-20T02:16:17.984Z,6.90
2019-04-20T02:16:47.368Z,7.00
2019-04-20T02:17:26.211Z,6.92
2019-04-20T02:18:03.634Z,7.83
2019-04-20T02:18:36.222Z,7.80
2019-04-20T02:19:13.292Z,7.33
2019-04-20T02:19:49.236Z,7.25
2019-04-20T02:20:28.691Z,7.62
2019-04-20T02:20:59.833Z,7.20
2019-04-20T02:21:33.778Z,7.03
2019-04-20T02:22:07.572Z,7.40
2019-04-20T02:22:44.611Z,7.55
2019-04-20T02:23:16.330Z,7.70
2019-04-20T02:23:46.398Z,8.15
2019-04-20T02:24:12.784Z,7.58
2019-04-20T02:24:46.795Z,7.10
2019-04-20T02:25:20.610Z,6.90
2019-04-20T02:25:54.180Z,7.58
2019-04-20T02:26:28.104Z,6.80
2019-04-20T02:27:01.977Z,7.80
2019-04-20T02:27:43.262Z,6.72
2019-04-20T02:28:27.610Z,7.28
2019-04-20T02:29:12.216Z,7.40
2019-04-20T02:29:39.966Z,7.85
2019-04-20T02:30:21.333Z,7.20
2019-04-20T02:31:10.483Z,6.95
2019-04-20T02:31:44.541Z,7.83
2019-04-20T02:32:53.266Z,7.42
2019-04-20T02:33:40.173Z,7.00
2019-04-20T02:34:03.989Z,7.12
2019-04-20T02:35:58.494Z,7.67
2019-04-20T02:36:51.210Z,7.70
2019-04-20T02:38:59.988Z,7.37
2019-04-20T02:39:32.943Z,7.42
2019-04-20T02:39:57.906Z,7.85
2019-04-20T02:41:10.174Z,7.67
2019-04-20T02:42:20.042Z,7.50
2019-04-20T02:43:03.060Z,7.08
2019-04-20T02:43:24.962Z,6.90
2019-04-20T02:44:06.384Z,7.65
2019-04-20T02:44:44.233Z,8.03
2019-04-20T02:45:18.671Z,8.03
2019-04-20T02:45:40.498Z,8.35
2019-04-20T02:46:15.224Z,7.87
2019-04-20T02:46:59.113Z,8.70
2019-04-20T02:47:41.470Z,7.70
2019-04-20T02:48:35.811Z,7.62
2019-04-20T02:49:33.703Z,7.30
2019-04-20T02:49:44.861Z,7.25
2019-04-20T02:50:21.536Z,7.50
2019-04-20T02:50:49.520Z,7.72
2019-04-20T02:51:28.826Z,8.15
2019-04-20T02:52:42.160Z,7.83
2019-04-20T02:53:16.453Z,8.18
2019-04-20T02:53:51.354Z,7.90
2019-04-20T02:54:54.947Z,8.08
2019-04-20T02:56:08.648Z,7.80
2019-04-20T02:56:40.202Z,7.30
2019-04-20T02:57:12.140Z,7.92
2019-04-20T02:59:13.339Z,8.25
2019-04-20T03:00:10.376Z,7.87
2019-04-20T03:00:31.323Z,7.03
2019-04-20T03:01:30.930Z,8.03
2019-04-20T03:02:09.099Z,8.25
2019-04-20T03:02:35.962Z,7.42
2019-04-20T03:03:07.908Z,8.05
2019-04-20T03:03:38.595Z,8.68
2019-04-20T03:04:10.746Z,8.08
2019-04-20T03:04:45.867Z,8.20
2019-04-20T03:05:26.302Z,8.75
2019-04-20T03:06:04.438Z,8.08
2019-04-20T03:06:35.080Z,8.38
2019-04-20T03:07:11.599Z,8.55
2019-04-20T03:07:53.372Z,8.40
2019-04-20T03:08:22.282Z,8.15
2019-04-20T03:09:04.926Z,8.93
2019-04-20T03:09:36.953Z,8.98
2019-04-20T03:10:09.451Z,7.78
2019-04-20T03:10:57.801Z,7.78
2019-04-20T03:11:26.226Z,8.38
2019-04-20T03:12:32.872Z,8.48
2019-04-20T03:13:02.846Z,8.73
2019-04-20T03:13:36.757Z,8.00
2019-04-20T03:14:11.108Z,8.78
2019-04-20T03:14:39.365Z,8.18
2019-04-20T03:15:21.845Z,8.75
2019-04-20T03:15:55.989Z,8.13
2019-04-20T03:16:24.239Z,8.15
2019-04-20T03:17:08.143Z,7.70
2019-04-20T03:17:41.397Z,7.50
2019-04-20T03:18:17.958Z,8.33
2019-04-20T03:18:44.566Z,8.10
2019-04-20T03:19:16.105Z,9.05
2019-04-20T03:19:48.703Z,9.40
2019-04-20T03:20:36.576Z,8.70
2019-04-20T03:21:07.385Z,8.13
2019-04-20T03:21:45.054Z,8.08
2019-04-20T03:22:24.493Z,8.30
2019-04-20T03:23:15.940Z,8.08
2019-04-20T03:23:31.079Z,9.10
2019-04-20T03:24:09.633Z,7.80
2019-04-20T03:24:37.742Z,7.97
2019-04-20T03:25:12.456Z,8.08
2019-04-20T03:26:06.448Z,9.35
2019-04-20T03:26:40.177Z,8.20
2019-04-20T03:27:30.604Z,8.25
2019-04-20T03:28:10.820Z,8.03
2019-04-20T03:29:01.318Z,8.28
2019-04-20T03:29:56.223Z,7.45
2019-04-20T03:31:45.155Z,8.03
2019-04-20T03:32:28.506Z,8.25
2019-04-20T03:33:02.852Z,8.50
2019-04-20T03:33:41.398Z,8.20
2019-04-20T03:34:30.208Z,9.70
2019-04-20T03:35:44.506Z,7.33
2019-04-20T03:36:19.846Z,8.23
2019-04-20T03:36:53.145Z,7.85
2019-04-20T03:37:26.689Z,9.10
2019-04-20T03:38:00.916Z,8.83
2019-04-20T03:38:30.166Z,8.53
2019-04-20T03:39:03.663Z,9.20
2019-04-20T03:39:38.987Z,10.60
2019-04-20T03:40:08.591Z,9.00
2019-04-20T03:40:45.304Z,8.45
2019-04-20T03:41:13.961Z,7.80
2019-04-20T03:41:45.258Z,8.63
2019-04-20T03:42:14.213Z,8.55
2019-04-20T03:42:46.872Z,8.68
2019-04-20T03:43:20.173Z,9.20
2019-04-20T03:43:58.468Z,8.15
2019-04-20T03:44:30.669Z,8.48
2019-04-20T03:45:07.534Z,9.48
2019-04-20T03:45:44.519Z,9.30
2019-04-20T03:46:14.127Z,8.80
2019-04-20T03:46:53.090Z,7.97
2019-04-20T03:47:31.598Z,10.32
2019-04-20T03:48:08.129Z,10.35
2019-04-20T03:48:50.761Z,8.73
2019-04-20T03:49:21.317Z,9.35
2019-04-20T03:50:00.953Z,8.65
2019-04-20T03:50:37.834Z,8.45
2019-04-20T03:51:07.047Z,9.00
2019-04-20T03:51:47.118Z,9.30
2019-04-20T03:52:31.021Z,9.33
2019-04-20T03:53:24.061Z,8.80
2019-04-20T03:54:22.260Z,9.30
2019-04-20T03:55:25.533Z,9.05
2019-04-20T03:56:24.888Z,8.75
2019-04-20T03:57:19.688Z,8.53
2019-04-20T03:58:14.326Z,9.20
2019-04-20T03:58:55.523Z,9.10
2019-04-20T04:00:01.811Z,8.18
2019-04-20T04:01:03.839Z,9.60
2019-04-20T04:02:37.859Z,9.60
2019-04-20T04:03:01.661Z,9.13
2019-04-20T04:03:42.480Z,9.10
2019-04-20T04:04:27.423Z,8.70
2019-04-20T04:05:08.500Z,8.95
2019-04-20T04:05:48.129Z,8.63
2019-04-20T04:06:22.788Z,9.10
2019-04-20T04:06:52.575Z,8.90
2019-04-20T04:07:30.496Z,9.43
2019-04-20T04:08:09.070Z,10.03
2019-04-20T04:08:36.381Z,9.65
2019-04-20T04:09:16.427Z,8.53
2019-04-20T04:09:56.212Z,9.25
2019-04-20T04:10:28.283Z,9.90
2019-04-20T04:11:11.099Z,10.25
2019-04-20T04:11:38.097Z,10.50
2019-04-20T04:12:39.557Z,9.33
2019-04-20T04:13:12.139Z,9.08
2019-04-20T04:13:45.901Z,10.05
2019-04-20T04:14:19.735Z,9.05
2019-04-20T04:14:53.682Z,9.08
2019-04-20T04:15:27.537Z,10.32
2019-04-20T04:16:04.856Z,9.95
2019-04-20T04:16:42.260Z,10.53
2019-04-20T04:17:14.175Z,9.35
2019-04-20T04:17:45.613Z,9.63
2019-04-20T04:18:27.823Z,10.48
2019-04-20T04:19:06.297Z,9.45
2019-04-20T04:19:33.642Z,10.60
2019-04-20T04:20:09.777Z,10.65
2019-04-20T04:20:49.247Z,10.80
2019-04-20T04:21:21.212Z,10.10
2019-04-20T04:22:04.025Z,10.58
2019-04-20T04:22:41.995Z,9.93
2019-04-20T04:23:09.977Z,9.05
2019-04-20T04:23:56.129Z,9.18
2019-04-20T04:24:17.183Z,10.58
2019-04-20T04:24:56.979Z,10.28
2019-04-20T04:25:25.098Z,8.83
2019-04-20T04:26:22.344Z,9.55
2019-04-20T04:26:39.452Z,9.85
2019-04-20T04:27:05.717Z,9.40
2019-04-20T04:27:48.981Z,10.53
2019-04-20T04:28:24.877Z,10.90
2019-04-20T04:29:00.671Z,11.45
2019-04-20T04:29:35.675Z,9.85
2019-04-20T04:30:05.381Z,10.13
2019-04-20T04:30:37.881Z,10.63
2019-04-20T04:31:15.730Z,10.45
2019-04-20T04:32:01.105Z,9.98
2019-04-20T04:32:45.338Z,9.73
2019-04-20T04:33:37.863Z,10.65
2019-04-20T04:33:53.166Z,10.58
2019-04-20T04:34:09.349Z,10.05
2019-04-20T04:34:44.715Z,10.23
2019-04-20T04:35:14.144Z,10.82
2019-04-20T04:35:51.604Z,10.58
2019-04-20T04:36:26.132Z,11.25
2019-04-20T04:37:05.426Z,10.85
2019-04-20T04:37:37.649Z,10.13
2019-04-20T04:38:12.750Z,9.28
2019-04-20T04:38:55.174Z,10.05
2019-04-20T04:39:29.353Z,10.55
2019-04-20T04:40:01.190Z,9.90
2019-04-20T04:40:39.243Z,11.05
2019-04-20T04:41:13.437Z,10.75
2019-04-20T04:41:42.335Z,10.58
2019-04-20T04:42:24.933Z,11.63
2019-04-20T04:42:53.543Z,11.20
2019-04-20T04:43:28.516Z,11.15
2019-04-20T04:44:00.406Z,10.53
2019-04-20T04:44:30.219Z,10.93
2019-04-20T04:45:00.597Z,10.68
2019-04-20T04:45:28.740Z,10.32
2019-04-20T04:46:01.715Z,10.58
2019-04-20T04:46:42.418Z,11.05
2019-04-20T04:47:10.528Z,10.38
2019-04-20T04:47:43.599Z,10.20
2019-04-20T04:48:23.942Z,10.32
2019-04-20T04:48:52.875Z,10.50
2019-04-20T04:49:32.019Z,11.20
2019-04-20T04:50:08.940Z,9.93
2019-04-20T04:50:44.634Z,10.88
2019-04-20T04:51:15.788Z,10.98
2019-04-20T04:51:52.032Z,10.78
2019-04-20T04:52:27.414Z,11.03
2019-04-20T04:53:02.802Z,12.05
2019-04-20T04:53:43.232Z,10.38
2019-04-20T04:54:12.870Z,10.75
2019-04-20T04:54:46.310Z,10.43
2019-04-20T04:55:23.755Z,11.95
2019-04-20T04:55:54.641Z,11.97
2019-04-20T04:56:23.954Z,10.70
2019-04-20T04:56:56.673Z,11.53
2019-04-20T04:57:30.448Z,10.40
2019-04-20T04:58:04.402Z,10.25
2019-04-20T04:58:38.484Z,10.85
2019-04-20T04:59:12.684Z,10.35
2019-04-20T04:59:46.450Z,10.82
2019-04-20T05:00:25.555Z,10.98
2019-04-20T05:01:03.541Z,11.55
2019-04-20T05:01:32.734Z,10.68
2019-04-20T05:02:03.648Z,10.78
2019-04-20T05:02:43.252Z,10.40
2019-04-20T05:03:28.741Z,11.28
2019-04-20T05:04:14.705Z,10.43
2019-04-20T05:05:05.375Z,11.50
2019-04-20T05:05:36.073Z,10.55
2019-04-20T05:06:28.091Z,10.70
2019-04-20T05:07:05.118Z,9.75
2019-04-20T05:07:40.009Z,8.98
2019-04-20T05:08:11.073Z,11.05
2019-04-20T05:08:42.013Z,10.90
2019-04-20T05:09:14.945Z,9.90
2019-04-20T05:09:46.499Z,9.80
2019-04-20T05:10:20.740Z,10.00
2019-04-20T05:10:54.171Z,9.93
2019-04-20T05:11:27.962Z,10.63
2019-04-20T05:12:07.170Z,9.50
2019-04-20T05:12:37.071Z,10.80
2019-04-20T05:13:11.240Z,9.83
2019-04-20T05:13:51.726Z,10.10
2019-04-20T05:14:24.525Z,10.53
2019-04-20T05:15:03.542Z,9.58
2019-04-20T05:15:44.395Z,10.10
2019-04-20T05:16:15.865Z,9.80
2019-04-20T05:16:50.979Z,10.60
2019-04-20T05:17:29.273Z,9.83
2019-04-20T05:18:06.221Z,8.60
2019-04-20T05:18:45.162Z,10.90
2019-04-20T05:19:29.494Z,9.63
2019-04-20T05:19:55.282Z,10.25
2019-04-20T05:20:24.200Z,10.00
2019-04-20T05:21:04.424Z,9.00
2019-04-20T05:22:09.754Z,10.40
2019-04-20T05:22:41.586Z,9.83
2019-04-20T05:23:38.808Z,10.80
2019-04-20T05:24:22.634Z,9.10
2019-04-20T05:25:14.226Z,9.60
2019-04-20T05:26:21.069Z,8.75
2019-04-20T05:27:03.049Z,9.20
2019-04-20T05:27:36.364Z,9.50
2019-04-20T05:28:11.984Z,10.23
2019-04-20T05:28:41.849Z,9.43
2019-04-20T05:29:12.514Z,9.58
2019-04-20T05:29:39.512Z,10.28
2019-04-20T05:30:13.928Z,9.18
2019-04-20T05:30:52.586Z,9.58
2019-04-20T05:31:25.601Z,9.60
2019-04-20T05:32:04.420Z,9.53
2019-04-20T05:32:39.958Z,8.93
2019-04-20T05:33:10.029Z,10.08
2019-04-20T05:34:04.146Z,9.20
2019-04-20T05:34:40.275Z,9.90
2019-04-20T05:35:12.177Z,9.90
2019-04-20T05:35:44.411Z,9.70
2019-04-20T05:36:20.519Z,9.95
2019-04-20T05:36:49.345Z,10.10
2019-04-20T05:37:34.655Z,10.43
2019-04-20T05:38:06.931Z,10.03
2019-04-20T05:38:43.154Z,9.53
2019-04-20T05:39:50.680Z,8.90
2019-04-20T05:40:22.264Z,10.03
2019-04-20T05:40:59.786Z,9.33
2019-04-20T05:41:28.583Z,9.28
2019-04-20T05:42:02.919Z,9.10
2019-04-20T05:42:48.562Z,8.68
2019-04-20T05:43:30.597Z,9.40
2019-04-20T05:44:05.292Z,10.30
2019-04-20T05:44:48.626Z,8.95
2019-04-20T05:45:18.185Z,9.28
2019-04-20T05:45:45.383Z,8.80
2019-04-20T05:46:40.990Z,8.98
2019-04-20T05:47:06.954Z,9.70
2019-04-20T05:47:37.771Z,9.10
2019-04-20T05:48:16.920Z,9.23
2019-04-20T05:48:57.875Z,11.18
2019-04-20T05:49:40.330Z,9.80
2019-04-20T05:50:03.164Z,9.20
2019-04-20T05:50:43.536Z,9.08
2019-04-20T05:51:25.514Z,9.95
2019-04-20T05:52:22.537Z,10.00
2019-04-20T05:52:35.715Z,10.18
2019-04-20T05:53:10.068Z,9.20
2019-04-20T05:53:38.553Z,10.23
2019-04-20T05:54:15.568Z,9.80
2019-04-20T05:54:50.914Z,9.23
2019-04-20T05:55:21.817Z,10.50
2019-04-20T05:55:55.973Z,9.48
2019-04-20T05:56:38.033Z,10.05
2019-04-20T05:57:14.753Z,9.73
2019-04-20T05:57:43.380Z,10.10
2019-04-20T05:58:19.297Z,8.55
2019-04-20T05:58:53.602Z,9.90
2019-04-20T05:59:23.418Z,10.55
2019-04-20T06:00:08.319Z,9.75
2019-04-20T06:00:40.591Z,10.58
2019-04-20T06:01:16.104Z,10.43
2019-04-20T06:01:48.334Z,10.10
2019-04-20T06:02:25.247Z,9.83
2019-04-20T06:02:55.999Z,10.30
2019-04-20T06:03:28.989Z,11.55
2019-04-20T06:04:02.690Z,9.68
2019-04-20T06:04:53.983Z,9.75
2019-04-20T06:05:19.620Z,10.38
2019-04-20T06:05:55.527Z,10.25
2019-04-20T06:06:22.083Z,10.53
2019-04-20T06:07:02.345Z,10.55
2019-04-20T06:07:48.631Z,9.85
2019-04-20T06:08:05.464Z,10.00
2019-04-20T06:08:46.495Z,10.30
2019-04-20T06:09:17.767Z,9.50
2019-04-20T06:09:54.379Z,10.65
2019-04-20T06:10:27.525Z,9.43
2019-04-20T06:11:01.950Z,10.25
2019-04-20T06:11:34.361Z,9.93
2019-04-20T06:12:40.010Z,10.43
2019-04-20T06:13:17.525Z,10.35
2019-04-20T06:14:05.890Z,11.35
2019-04-20T06:15:04.557Z,9.73
2019-04-20T06:16:06.060Z,10.13
2019-04-20T06:16:50.067Z,10.68
2019-04-20T06:17:43.997Z,10.10
2019-04-20T06:18:06.531Z,10.72
2019-04-20T06:18:56.135Z,10.95
2019-04-20T06:19:31.315Z,10.45
2019-04-20T06:20:06.246Z,11.97
2019-04-20T06:20:41.093Z,10.30
2019-04-20T06:21:26.554Z,11.68
2019-04-20T06:22:03.768Z,10.68
2019-04-20T06:22:57.436Z,11.12
2019-04-20T06:23:45.593Z,10.72
2019-04-20T06:24:29.238Z,12.13
2019-04-20T06:25:31.217Z,10.88
2019-04-20T06:26:06.194Z,10.70
2019-04-20T06:27:03.259Z,10.98
2019-04-20T06:27:40.973Z,11.00
2019-04-20T06:28:12.722Z,11.95
2019-04-20T06:28:43.822Z,11.70
2019-04-20T06:29:20.516Z,12.78
2019-04-20T06:29:55.786Z,10.75
2019-04-20T06:30:28.383Z,10.40
2019-04-20T06:31:10.730Z,11.15
2019-04-20T06:31:41.047Z,11.05
2019-04-20T06:32:23.257Z,9.95
2019-04-20T06:34:48.659Z,10.85
2019-04-20T06:35:40.584Z,10.65
2019-04-20T06:36:13.961Z,11.70
2019-04-20T06:36:41.396Z,11.38
2019-04-20T06:37:06.794Z,11.45
2019-04-20T06:37:55.077Z,10.80
2019-04-20T06:38:35.283Z,10.10
2019-04-20T06:39:01.999Z,11.05
2019-04-20T06:40:24.763Z,11.25
2019-04-20T06:40:57.772Z,10.90
2019-04-20T06:41:30.195Z,11.10
2019-04-20T06:42:18.093Z,11.22
2019-04-20T06:43:02.185Z,10.88
2019-04-20T06:43:43.303Z,12.13
2019-04-20T06:44:11.377Z,11.40
2019-04-20T06:44:59.706Z,10.88
2019-04-20T06:45:22.608Z,11.15
2019-04-20T06:46:01.047Z,9.83
2019-04-20T06:46:29.111Z,11.53
2019-04-20T06:47:15.812Z,10.18
2019-04-20T06:47:42.803Z,10.35
2019-04-20T06:48:13.574Z,11.38
2019-04-20T06:48:46.076Z,10.93
2019-04-20T06:49:24.432Z,11.63
2019-04-20T06:49:50.383Z,11.12
2019-04-20T06:50:24.614Z,10.30
2019-04-20T06:50:58.112Z,11.28
2019-04-20T06:51:52.787Z,11.22
2019-04-20T06:52:37.468Z,11.95
2019-04-20T06:53:39.386Z,10.30
2019-04-20T06:54:12.381Z,11.03
2019-04-20T06:55:01.571Z,10.40
2019-04-20T06:55:42.990Z,10.55
2019-04-20T06:56:15.625Z,10.98
2019-04-20T06:56:54.285Z,11.28
2019-04-20T06:57:25.542Z,9.93
2019-04-20T06:58:01.214Z,11.48
2019-04-20T06:58:46.352Z,11.08
2019-04-20T06:59:21.059Z,12.35
2019-04-20T06:59:47.661Z,11.57
2019-04-20T07:00:18.247Z,11.95
2019-04-20T07:00:58.851Z,12.20
2019-04-20T07:01:46.797Z,48.45
2019-04-20T07:02:17.225Z,16.42
2019-04-20T07:02:53.988Z,11.55
2019-04-20T07:03:31.524Z,10.53
2019-04-20T07:04:02.097Z,13.00
2019-04-20T07:04:38.745Z,11.90
2019-04-20T07:05:00.177Z,11.38
2019-04-20T07:05:33.013Z,11.85
2019-04-20T07:06:29.315Z,11.88
2019-04-20T07:06:54.149Z,11.88
2019-04-20T07:07:22.692Z,11.48
2019-04-20T07:08:27.705Z,10.60
2019-04-20T07:08:40.874Z,10.98
2019-04-20T07:09:06.560Z,11.60
2019-04-20T07:09:49.621Z,11.05
2019-04-20T07:10:53.154Z,11.30
2019-04-20T07:11:25.093Z,11.03
2019-04-20T07:11:51.854Z,12.37
2019-04-20T07:12:31.150Z,11.70
2019-04-20T07:13:01.717Z,11.83
2019-04-20T07:13:34.116Z,10.95
2019-04-20T07:14:01.015Z,11.03
2019-04-20T07:14:40.461Z,11.40
2019-04-20T07:15:19.857Z,11.75
2019-04-20T07:15:57.256Z,11.65
2019-04-20T07:17:24.428Z,11.38
2019-04-20T07:18:18.627Z,12.13
2019-04-20T07:19:14.119Z,11.73
2019-04-20T07:19:50.423Z,10.70
2019-04-20T07:20:49.086Z,10.80
2019-04-20T07:21:23.443Z,11.65
2019-04-20T07:23:43.732Z,10.82
2019-04-20T07:24:18.438Z,11.68
2019-04-20T07:24:52.232Z,11.70
2019-04-20T07:25:26.646Z,12.28
2019-04-20T07:26:07.735Z,11.10
2019-04-20T07:26:37.506Z,10.75
2019-04-20T07:27:06.634Z,10.45
2019-04-20T07:27:40.195Z,11.55
2019-04-20T07:28:19.749Z,11.10
2019-04-20T07:28:52.563Z,10.85
2019-04-20T07:29:29.608Z,10.95
2019-04-20T07:30:04.044Z,11.90
2019-04-20T07:30:35.193Z,11.08
2019-04-20T07:31:06.854Z,12.13
2019-04-20T07:31:40.251Z,11.70
2019-04-20T07:32:14.152Z,11.73
2019-04-20T07:32:57.949Z,12.70
2019-04-20T07:33:32.197Z,11.00
2019-04-20T07:34:04.679Z,11.53
2019-04-20T07:34:38.760Z,11.43
2019-04-20T07:35:08.193Z,11.35
2019-04-20T07:35:46.514Z,11.88
2019-04-20T07:36:28.279Z,12.07
2019-04-20T07:37:17.752Z,12.13
2019-04-20T07:38:34.495Z,11.45
2019-04-20T07:38:55.208Z,11.73
2019-04-20T07:39:29.032Z,11.50
2019-04-20T07:40:07.782Z,11.33
2019-04-20T07:40:38.324Z,12.63
2019-04-20T07:41:14.362Z,11.93
2019-04-20T07:41:50.829Z,11.63
2019-04-20T07:42:23.124Z,12.07
2019-04-20T07:43:04.676Z,11.18
2019-04-20T07:43:26.640Z,11.00
2019-04-20T07:44:11.849Z,12.05
2019-04-20T07:44:42.048Z,11.12
2019-04-20T07:45:14.844Z,11.80
2019-04-20T07:45:44.286Z,11.80
2019-04-20T07:46:35.198Z,10.20
2019-04-20T07:47:01.638Z,11.60
2019-04-20T07:47:38.057Z,11.18
2019-04-20T07:48:11.393Z,10.65
2019-04-20T07:48:36.657Z,11.03
2019-04-20T07:49:12.730Z,10.00
2019-04-20T07:49:45.728Z,10.48
2019-04-20T07:50:18.602Z,11.38
2019-04-20T07:50:48.618Z,12.33
2019-04-20T07:51:18.312Z,10.78
2019-04-20T07:51:47.762Z,12.53
2019-04-20T07:52:31.551Z,11.28
2019-04-20T07:53:10.917Z,11.83
2019-04-20T07:53:42.207Z,11.38
2019-04-20T07:54:29.157Z,12.03
2019-04-20T07:55:22.541Z,12.47
2019-04-20T07:55:37.979Z,12.05
2019-04-20T07:56:20.737Z,11.20
2019-04-20T07:56:42.563Z,12.35
2019-04-20T07:57:14.679Z,10.72
2019-04-20T07:57:46.882Z,11.22
2019-04-20T07:58:18.218Z,12.10
2019-04-20T07:58:47.947Z,11.40
2019-04-20T07:59:27.841Z,11.33
2019-04-20T08:00:08.431Z,11.03
2019-04-20T08:00:59.761Z,11.40
2019-04-20T08:01:47.886Z,11.73
2019-04-20T08:02:45.071Z,12.13
2019-04-20T08:03:48.484Z,11.48
2019-04-20T08:04:17.436Z,11.88
2019-04-20T08:05:03.441Z,11.57
2019-04-20T08:05:41.854Z,11.15
2019-04-20T08:06:15.860Z,12.37
2019-04-20T08:06:48.734Z,12.10
2019-04-20T08:07:17.882Z,11.18
2019-04-20T08:08:08.413Z,11.85
2019-04-20T08:08:45.302Z,12.40
2019-04-20T08:09:14.538Z,11.60
2019-04-20T08:09:44.158Z,12.30
2019-04-20T08:10:24.960Z,11.55
2019-04-20T08:10:58.635Z,11.50
2019-04-20T08:11:47.323Z,11.15
2019-04-20T08:12:21.689Z,11.43
2019-04-20T08:13:00.777Z,11.35
2019-04-20T08:13:47.556Z,11.88
2019-04-20T08:14:06.057Z,11.05
2019-04-20T08:14:39.704Z,12.10
2019-04-20T08:15:27.121Z,10.65
2019-04-20T08:16:23.144Z,11.95
2019-04-20T08:17:09.964Z,11.38
2019-04-20T08:17:38.913Z,12.35
2019-04-20T08:18:04.442Z,10.25
2019-04-20T08:18:41.181Z,11.80
2019-04-20T08:19:11.334Z,11.28
2019-04-20T08:19:45.491Z,12.43
2019-04-20T08:20:22.017Z,12.75